aviador You're here:

FAHS Decoded Metar

HOEDSPRUIT in SOUTH AFRICA
Report Time2017-09-20 07:00:00
UTC Time2017-09-20 07:36:59
Flight Rules unknown UNKNOWN
Wind170° at 05 kt
W.Decomp.*RWY 18: 5.0 kt HW 0.3 kt RCW
RWY 27: 0.3 kt HW 5 kt LCW
W.Rank170° ranks 2
Current wind is below 170° avg. (10.1)
VisibilityN/A
Phenomena:N/A
Clouds:N/A
Expected CloudBase > 2,000 ft AGL from Temp-Dew spread
CeilingNone
Temp19°C (ISA +7)
Dew Point14°C (73% RH)
AAT18.5°C
QNH1027 hPa
Density Alt2,238 ft
Elevation1,640 ft
Report Wrong Elevation
Raw Report
METAR FAHS 200700Z AUTO 17005KT //// // ////// 19/14 Q1027=

Extra information for FAHS:More info

Airport Information Weather charts Add Link Nearby Venues Social comments